createdAt,value
2017-07-14T00:00:48.942Z,100561
2017-07-14T00:01:50.730Z,100559
2017-07-14T00:02:51.037Z,100562
2017-07-14T00:03:50.097Z,100565
2017-07-14T00:04:49.177Z,100561
2017-07-14T00:05:50.123Z,100560
2017-07-14T00:06:50.931Z,100560
2017-07-14T00:07:49.271Z,100544
2017-07-14T00:08:49.591Z,100554
2017-07-14T00:09:51.022Z,100550
2017-07-14T00:10:49.364Z,100553
2017-07-14T00:11:50.403Z,100544
2017-07-14T00:12:49.484Z,100553
2017-07-14T00:13:49.520Z,100552
2017-07-14T00:14:49.805Z,100553
2017-07-14T00:15:51.252Z,100541
2017-07-14T00:16:51.288Z,100551
2017-07-14T00:17:51.297Z,100554
2017-07-14T00:18:51.345Z,100549
2017-07-14T00:19:49.694Z,100549
2017-07-14T00:20:50.082Z,100547
2017-07-14T00:21:51.522Z,100545
2017-07-14T00:22:49.857Z,100542
2017-07-14T00:23:50.887Z,100542
2017-07-14T00:24:49.969Z,100537
2017-07-14T00:25:50.921Z,100538
2017-07-14T00:26:50.265Z,100535
2017-07-14T00:27:50.027Z,100527
2017-07-14T00:28:50.074Z,100534
2017-07-14T00:29:51.104Z,100523
2017-07-14T00:30:50.227Z,100528
2017-07-14T00:31:50.186Z,100527
2017-07-14T00:32:52.218Z,100526
2017-07-14T00:33:50.369Z,100515
2017-07-14T00:34:51.396Z,100527
2017-07-14T00:35:51.440Z,100518
2017-07-14T00:36:52.183Z,100521
2017-07-14T00:37:51.499Z,100514
2017-07-14T00:38:51.780Z,100528
2017-07-14T00:39:51.584Z,100516
2017-07-14T00:40:50.624Z,100522
2017-07-14T00:41:50.704Z,100525
2017-07-14T00:42:51.698Z,100520
2017-07-14T00:43:52.446Z,100518
2017-07-14T00:44:51.014Z,100521
2017-07-14T00:45:52.467Z,100519
2017-07-14T00:46:52.581Z,100522
2017-07-14T00:47:51.858Z,100520
2017-07-14T00:48:50.925Z,100521
2017-07-14T00:49:50.940Z,100522
2017-07-14T00:50:52.287Z,100523
2017-07-14T00:51:52.777Z,100510
2017-07-14T00:52:52.153Z,100518
2017-07-14T00:53:52.229Z,100524
2017-07-14T00:54:52.938Z,100520
2017-07-14T00:55:51.276Z,100519
2017-07-14T00:56:51.520Z,100515
2017-07-14T00:57:52.339Z,100513
2017-07-14T00:58:53.173Z,100506
2017-07-14T00:59:52.561Z,100512
2017-07-14T01:00:53.267Z,100506
2017-07-14T01:01:51.586Z,100512
2017-07-14T01:02:51.945Z,100501
2017-07-14T01:03:52.645Z,100508
2017-07-14T01:04:51.640Z,100503
2017-07-14T01:05:53.403Z,100505
2017-07-14T01:06:53.458Z,100506
2017-07-14T01:07:53.482Z,100504
2017-07-14T01:08:53.781Z,100497
2017-07-14T01:09:53.563Z,100501
2017-07-14T01:10:53.647Z,100489
2017-07-14T01:11:52.931Z,100498
2017-07-14T01:12:51.961Z,100496
2017-07-14T01:13:51.997Z,100495
2017-07-14T01:14:52.432Z,100491
2017-07-14T01:15:53.788Z,100488
2017-07-14T01:16:53.878Z,100489
2017-07-14T01:17:52.288Z,100490
2017-07-14T01:18:53.242Z,100486
2017-07-14T01:19:52.287Z,100477
2017-07-14T01:20:52.574Z,100484
2017-07-14T01:21:53.947Z,100485
2017-07-14T01:22:53.313Z,100484
2017-07-14T01:23:54.028Z,100480
2017-07-14T01:24:52.529Z,100477
2017-07-14T01:25:52.473Z,100473
2017-07-14T01:26:52.873Z,100480
2017-07-14T01:27:52.602Z,100468
2017-07-14T01:28:52.689Z,100478
2017-07-14T01:29:54.477Z,100475
2017-07-14T01:30:52.770Z,100474
2017-07-14T01:31:53.834Z,100468
2017-07-14T01:32:53.102Z,100480
2017-07-14T01:33:53.850Z,100474
2017-07-14T01:34:52.926Z,100475
2017-07-14T01:35:53.860Z,100471
2017-07-14T01:36:54.034Z,100472
2017-07-14T01:37:53.100Z,100469
2017-07-14T01:38:54.413Z,100473
2017-07-14T01:39:53.189Z,100475
2017-07-14T01:40:54.858Z,100473
2017-07-14T01:41:53.241Z,100471
2017-07-14T01:42:53.250Z,100462
2017-07-14T01:43:53.312Z,100472
2017-07-14T01:44:54.632Z,100468
2017-07-14T01:45:53.434Z,100467
2017-07-14T01:46:53.343Z,100464
2017-07-14T01:47:53.380Z,100464
2017-07-14T01:48:55.136Z,100459
2017-07-14T01:49:54.469Z,100460
2017-07-14T01:50:54.865Z,100459
2017-07-14T01:51:54.659Z,100455
2017-07-14T01:52:53.737Z,100459
2017-07-14T01:53:53.778Z,100459
2017-07-14T01:54:53.873Z,100462
2017-07-14T01:55:53.863Z,100460
2017-07-14T01:56:55.984Z,100459
2017-07-14T01:57:55.619Z,100459
2017-07-14T01:58:54.034Z,100451
2017-07-14T01:59:54.100Z,100459
2017-07-14T02:00:54.211Z,100456
2017-07-14T02:01:55.229Z,100455
2017-07-14T02:02:54.666Z,100450
2017-07-14T02:03:54.402Z,100451
2017-07-14T02:04:56.105Z,100441
2017-07-14T02:05:54.455Z,100455
2017-07-14T02:06:55.462Z,100460
2017-07-14T02:07:54.496Z,100456
2017-07-14T02:08:55.813Z,100458
2017-07-14T02:09:54.642Z,100456
2017-07-14T02:10:54.776Z,100453
2017-07-14T02:11:55.877Z,100451
2017-07-14T02:12:56.062Z,100447
2017-07-14T02:13:56.865Z,100451
2017-07-14T02:14:57.077Z,100450
2017-07-14T02:15:57.313Z,100450
2017-07-14T02:16:55.176Z,100448
2017-07-14T02:17:56.415Z,100450
2017-07-14T02:18:56.233Z,100448
2017-07-14T02:19:55.907Z,100448
2017-07-14T02:20:57.149Z,100448
2017-07-14T02:21:55.334Z,100450
2017-07-14T02:22:55.392Z,100450
2017-07-14T02:23:57.109Z,100449
2017-07-14T02:24:55.493Z,100454
2017-07-14T02:25:57.362Z,100452
2017-07-14T02:26:57.543Z,100450
2017-07-14T02:27:56.438Z,100453
2017-07-14T02:28:55.723Z,100452
2017-07-14T02:29:56.673Z,100448
2017-07-14T02:30:57.412Z,100448
2017-07-14T02:31:57.441Z,100447
2017-07-14T02:32:56.076Z,100444
2017-07-14T02:33:55.807Z,100443
2017-07-14T02:34:57.538Z,100442
2017-07-14T02:35:56.824Z,100440
2017-07-14T02:36:55.962Z,100441
2017-07-14T02:37:57.676Z,100440
2017-07-14T02:38:58.741Z,100438
2017-07-14T02:39:57.197Z,100437
2017-07-14T02:40:56.079Z,100427
2017-07-14T02:41:56.182Z,100435
2017-07-14T02:42:57.799Z,100435
2017-07-14T02:43:56.192Z,100428
2017-07-14T02:44:57.450Z,100432
2017-07-14T02:45:56.951Z,100430
2017-07-14T02:46:57.970Z,100439
2017-07-14T02:47:56.512Z,100441
2017-07-14T02:48:57.356Z,100440
2017-07-14T02:49:56.479Z,100439
2017-07-14T02:50:56.866Z,100428
2017-07-14T02:51:56.555Z,100438
2017-07-14T02:52:57.524Z,100435
2017-07-14T02:53:57.654Z,100427
2017-07-14T02:54:56.766Z,100432
2017-07-14T02:55:57.798Z,100436
2017-07-14T02:56:57.056Z,100425
2017-07-14T02:57:57.845Z,100432
2017-07-14T02:58:58.552Z,100441
2017-07-14T02:59:57.961Z,100425
2017-07-14T03:00:58.689Z,100434
2017-07-14T03:01:58.135Z,100435
2017-07-14T03:02:59.190Z,100434
2017-07-14T03:03:57.252Z,100430
2017-07-14T03:04:57.315Z,100421
2017-07-14T03:05:58.255Z,100430
2017-07-14T03:06:57.408Z,100429
2017-07-14T03:07:57.434Z,100431
2017-07-14T03:08:57.698Z,100431
2017-07-14T03:09:57.453Z,100420
2017-07-14T03:10:58.460Z,100431
2017-07-14T03:11:58.547Z,100432
2017-07-14T03:12:57.665Z,100424
2017-07-14T03:13:57.790Z,100431
2017-07-14T03:14:58.134Z,100425
2017-07-14T03:15:57.869Z,100427
2017-07-14T03:16:57.892Z,100423
2017-07-14T03:17:59.589Z,100412
2017-07-14T03:18:59.709Z,100422
2017-07-14T03:19:59.704Z,100423
2017-07-14T03:20:59.311Z,100416
2017-07-14T03:21:58.126Z,100425
2017-07-14T03:22:59.178Z,100420
2017-07-14T03:23:59.211Z,100420
2017-07-14T03:24:59.961Z,100421
2017-07-14T03:26:00.016Z,100409
2017-07-14T03:26:59.673Z,100421
2017-07-14T03:27:58.417Z,100422
2017-07-14T03:28:58.448Z,100424
2017-07-14T03:29:58.471Z,100421
2017-07-14T03:30:58.532Z,100423
2017-07-14T03:32:00.298Z,100424
2017-07-14T03:32:58.915Z,100426
2017-07-14T03:33:58.634Z,100424
2017-07-14T03:34:59.633Z,100426
2017-07-14T03:35:58.652Z,100417
2017-07-14T03:36:59.740Z,100423
2017-07-14T03:38:00.538Z,100418
2017-07-14T03:39:00.768Z,100427
2017-07-14T03:40:00.617Z,100428
2017-07-14T03:41:00.667Z,100425
2017-07-14T03:41:58.995Z,100427
2017-07-14T03:43:00.087Z,100426
2017-07-14T03:44:00.800Z,100426
2017-07-14T03:44:59.513Z,100425
2017-07-14T03:46:00.904Z,100414
2017-07-14T03:47:00.269Z,100427
2017-07-14T03:48:01.084Z,100415
2017-07-14T03:49:01.128Z,100427
2017-07-14T03:49:59.544Z,100426
2017-07-14T03:50:59.873Z,100423
2017-07-14T03:52:00.709Z,100426
2017-07-14T03:52:59.773Z,100418
2017-07-14T03:53:59.856Z,100424
2017-07-14T03:54:59.822Z,100424
2017-07-14T03:56:01.560Z,100425
2017-07-14T03:57:00.192Z,100421
2017-07-14T03:57:59.994Z,100424
2017-07-14T03:59:00.013Z,100424
2017-07-14T04:00:00.072Z,100421
2017-07-14T04:01:01.793Z,100426
2017-07-14T04:02:01.147Z,100417
2017-07-14T04:03:02.269Z,100425
2017-07-14T04:04:01.983Z,100421
2017-07-14T04:05:01.993Z,100417
2017-07-14T04:06:00.284Z,100419
2017-07-14T04:07:01.372Z,100420
2017-07-14T04:08:00.422Z,100418
2017-07-14T04:09:00.783Z,100419
2017-07-14T04:10:02.206Z,100427
2017-07-14T04:11:00.668Z,100413
2017-07-14T04:12:01.682Z,100428
2017-07-14T04:13:02.512Z,100415
2017-07-14T04:14:02.774Z,100421
2017-07-14T04:19:21.654Z,100424
2017-07-14T04:20:22.370Z,100420
2017-07-14T04:21:23.174Z,100421
2017-07-14T04:22:22.453Z,100421
2017-07-14T04:23:22.507Z,100415
2017-07-14T04:24:22.614Z,100413
2017-07-14T04:25:21.987Z,100422
2017-07-14T04:26:23.405Z,100413
2017-07-14T04:27:22.749Z,100422
2017-07-14T04:28:21.872Z,100424
2017-07-14T04:29:21.888Z,100422
2017-07-14T04:30:22.892Z,100426
2017-07-14T04:31:22.234Z,100419
2017-07-14T04:32:22.026Z,100425
2017-07-14T04:33:22.074Z,100428
2017-07-14T04:34:22.036Z,100430
2017-07-14T04:35:22.096Z,100426
2017-07-14T04:36:22.229Z,100420
2017-07-14T04:37:22.515Z,100432
2017-07-14T04:38:23.916Z,100431
2017-07-14T04:39:23.209Z,100423
2017-07-14T04:40:23.281Z,100430
2017-07-14T04:41:23.299Z,100430
2017-07-14T04:42:23.402Z,100428
2017-07-14T04:43:22.826Z,100427
2017-07-14T04:44:24.204Z,100427
2017-07-14T04:45:24.135Z,100427
2017-07-14T04:46:22.704Z,100428
2017-07-14T04:47:22.715Z,100420
2017-07-14T04:48:22.804Z,100434
2017-07-14T04:49:24.785Z,100432
2017-07-14T04:50:24.499Z,100436
2017-07-14T04:51:24.537Z,100433
2017-07-14T04:52:24.644Z,100432
2017-07-14T04:53:23.018Z,100423
2017-07-14T04:54:23.042Z,100435
2017-07-14T04:55:23.415Z,100434
2017-07-14T04:56:23.198Z,100432
2017-07-14T04:57:24.203Z,100434
2017-07-14T04:58:24.236Z,100433
2017-07-14T04:59:24.417Z,100433
2017-07-14T05:00:23.378Z,100436
2017-07-14T05:01:23.684Z,100435
2017-07-14T05:02:23.522Z,100438
2017-07-14T05:03:23.695Z,100432
2017-07-14T05:04:23.695Z,100425
2017-07-14T05:05:23.794Z,100435
2017-07-14T05:06:23.725Z,100435
2017-07-14T05:07:24.068Z,100432
2017-07-14T05:08:24.848Z,100423
2017-07-14T05:09:24.826Z,100430
2017-07-14T05:10:23.907Z,100431
2017-07-14T05:11:23.944Z,100421
2017-07-14T05:12:25.651Z,100434
2017-07-14T05:13:24.341Z,100432
2017-07-14T05:14:24.073Z,100426
2017-07-14T05:15:25.105Z,100428
2017-07-14T05:16:24.167Z,100425
2017-07-14T05:17:24.182Z,100419
2017-07-14T05:18:25.206Z,100431
2017-07-14T05:19:25.553Z,100428
2017-07-14T05:20:24.395Z,100430
2017-07-14T05:21:24.437Z,100425
2017-07-14T05:22:24.476Z,100425
2017-07-14T05:23:25.414Z,100424
2017-07-14T05:24:24.602Z,100428
2017-07-14T05:25:24.889Z,100427
2017-07-14T05:26:24.618Z,100424
2017-07-14T05:27:25.626Z,100418
2017-07-14T05:28:25.667Z,100416
2017-07-14T05:29:24.804Z,100422
2017-07-14T05:30:24.875Z,100423
2017-07-14T05:31:25.176Z,100424
2017-07-14T05:32:25.909Z,100424
2017-07-14T05:33:26.051Z,100419
2017-07-14T05:34:26.082Z,100417
2017-07-14T05:35:26.727Z,100410
2017-07-14T05:36:25.079Z,100424
2017-07-14T05:37:25.488Z,100420
2017-07-14T05:38:26.943Z,100413
2017-07-14T05:39:26.296Z,100421
2017-07-14T05:40:26.333Z,100427
2017-07-14T05:41:25.325Z,100423
2017-07-14T05:42:25.378Z,100419
2017-07-14T05:43:27.353Z,100422
2017-07-14T05:44:25.543Z,100425
2017-07-14T05:45:27.283Z,100429
2017-07-14T05:46:27.322Z,100426
2017-07-14T05:47:26.709Z,100421
2017-07-14T05:48:26.767Z,100427
2017-07-14T05:49:29.302Z,100426
2017-07-14T05:50:25.931Z,100428
2017-07-14T05:51:28.961Z,100429
2017-07-14T05:52:27.594Z,100430
2017-07-14T05:53:27.039Z,100421
2017-07-14T05:54:26.834Z,100437
2017-07-14T05:55:26.442Z,100434
2017-07-14T05:56:26.164Z,100429
2017-07-14T05:57:26.196Z,100425
2017-07-14T05:58:26.318Z,100429
2017-07-14T05:59:27.921Z,100427
2017-07-14T06:00:26.343Z,100430
2017-07-14T06:01:26.627Z,100430
2017-07-14T06:02:28.124Z,100425
2017-07-14T06:03:28.190Z,100425
2017-07-14T06:04:26.523Z,100423
2017-07-14T06:05:26.633Z,100422
2017-07-14T06:06:27.594Z,100408
2017-07-14T06:07:29.182Z,100410
2017-07-14T06:08:26.769Z,100417
2017-07-14T06:09:26.818Z,100419
2017-07-14T06:10:28.598Z,100413
2017-07-14T06:11:27.951Z,100412
2017-07-14T06:12:27.929Z,100425
2017-07-14T06:13:28.345Z,100419
2017-07-14T06:14:28.820Z,100420
2017-07-14T06:15:29.662Z,100421
2017-07-14T06:16:28.984Z,100422
2017-07-14T06:17:29.072Z,100425
2017-07-14T06:18:28.410Z,100412
2017-07-14T06:19:27.794Z,100411
2017-07-14T06:20:29.248Z,100424
2017-07-14T06:21:27.666Z,100422
2017-07-14T06:22:29.350Z,100412
2017-07-14T06:23:28.681Z,100423
2017-07-14T06:24:27.763Z,100416
2017-07-14T06:25:30.389Z,100423
2017-07-14T06:26:27.827Z,100418
2017-07-14T06:27:29.610Z,100418
2017-07-14T06:28:30.605Z,100418
2017-07-14T06:29:27.987Z,100420
2017-07-14T06:30:29.639Z,100411
2017-07-14T06:31:28.329Z,100420
2017-07-14T06:32:28.032Z,100423
2017-07-14T06:33:28.151Z,100425
2017-07-14T06:34:29.116Z,100413
2017-07-14T06:35:29.839Z,100424
2017-07-14T06:36:28.237Z,100419
2017-07-14T06:37:29.274Z,100423
2017-07-14T06:38:30.645Z,100421
2017-07-14T06:39:30.115Z,100416
2017-07-14T06:40:29.438Z,100412
2017-07-14T06:41:30.176Z,100412
2017-07-14T06:42:29.585Z,100413
2017-07-14T06:43:29.815Z,100412
2017-07-14T06:44:28.718Z,100412
2017-07-14T06:45:29.762Z,100403
2017-07-14T06:46:29.827Z,100400
2017-07-14T06:47:29.795Z,100409
2017-07-14T06:48:31.805Z,100407
2017-07-14T06:49:31.589Z,100406
2017-07-14T06:50:30.576Z,100404
2017-07-14T06:51:28.938Z,100396
2017-07-14T06:52:28.963Z,100409
2017-07-14T06:53:30.081Z,100406
2017-07-14T06:54:31.500Z,100402
2017-07-14T06:55:29.180Z,100404
2017-07-14T06:56:30.945Z,100394
2017-07-14T06:57:30.959Z,100405
2017-07-14T06:58:30.247Z,100408
2017-07-14T06:59:30.991Z,100404
2017-07-14T07:00:30.293Z,100405
2017-07-14T07:01:31.059Z,100404
2017-07-14T07:02:29.573Z,100398
2017-07-14T07:03:29.397Z,100407
2017-07-14T07:04:29.489Z,100402
2017-07-14T07:05:31.224Z,100403
2017-07-14T07:06:30.502Z,100399
2017-07-14T07:07:29.570Z,100403
2017-07-14T07:08:31.839Z,100400
2017-07-14T07:09:30.404Z,100401
2017-07-14T07:10:29.791Z,100393
2017-07-14T07:11:31.464Z,100401
2017-07-14T07:12:30.808Z,100401
2017-07-14T07:13:29.842Z,100401
2017-07-14T07:14:31.632Z,100397
2017-07-14T07:15:29.927Z,100402
2017-07-14T07:16:30.051Z,100402
2017-07-14T07:17:30.022Z,100403
2017-07-14T07:18:31.766Z,100404
2017-07-14T07:19:30.071Z,100400
2017-07-14T07:20:31.806Z,100405
2017-07-14T07:21:31.384Z,100403
2017-07-14T07:22:31.941Z,100401
2017-07-14T07:23:31.284Z,100400
2017-07-14T07:24:30.405Z,100400
2017-07-14T07:25:31.442Z,100402
2017-07-14T07:26:30.446Z,100400
2017-07-14T07:27:32.207Z,100405
2017-07-14T07:28:30.577Z,100392
2017-07-14T07:29:31.626Z,100400
2017-07-14T07:30:32.372Z,100406
2017-07-14T07:31:30.749Z,100391
2017-07-14T07:32:31.803Z,100405
2017-07-14T07:33:31.830Z,100405
2017-07-14T07:34:32.624Z,100403
2017-07-14T07:35:30.978Z,100408
2017-07-14T07:36:30.965Z,100404
2017-07-14T07:37:32.682Z,100404
2017-07-14T07:38:31.040Z,100402
2017-07-14T07:39:31.780Z,100403
2017-07-14T07:40:32.471Z,100405
2017-07-14T07:41:32.910Z,100403
2017-07-14T07:42:31.301Z,100412
2017-07-14T07:43:32.314Z,100412
2017-07-14T07:44:31.407Z,100412
2017-07-14T07:45:31.438Z,100409
2017-07-14T07:46:31.489Z,100412
2017-07-14T07:47:33.202Z,100410
2017-07-14T07:48:31.444Z,100407
2017-07-14T07:49:33.249Z,100406
2017-07-14T07:50:32.571Z,100406
2017-07-14T07:51:32.725Z,100409
2017-07-14T07:52:33.472Z,100402
2017-07-14T07:53:31.834Z,100422
2017-07-14T07:54:33.518Z,100412
2017-07-14T07:55:32.797Z,100407
2017-07-14T07:56:32.857Z,100415
2017-07-14T07:57:31.978Z,100409
2017-07-14T07:58:32.048Z,100408
2017-07-14T07:59:33.758Z,100411
2017-07-14T08:00:33.090Z,100410
2017-07-14T08:01:32.128Z,100410
2017-07-14T08:02:32.179Z,100410
2017-07-14T08:03:33.889Z,100400
2017-07-14T08:04:32.275Z,100405
2017-07-14T08:05:33.975Z,100408
2017-07-14T08:06:34.030Z,100403
2017-07-14T08:07:32.902Z,100402
2017-07-14T08:08:33.376Z,100400
2017-07-14T08:09:33.019Z,100395
2017-07-14T08:10:32.410Z,100395
2017-07-14T08:11:33.456Z,100396
2017-07-14T08:12:34.254Z,100397
2017-07-14T08:13:33.577Z,100373
2017-07-14T08:14:34.653Z,100393
2017-07-14T08:15:33.720Z,100393
2017-07-14T08:16:34.831Z,100394
2017-07-14T08:17:32.805Z,100397
2017-07-14T08:18:32.899Z,100390
2017-07-14T08:19:34.369Z,100388
2017-07-14T08:20:33.590Z,100390
2017-07-14T08:21:33.957Z,100385
2017-07-14T08:22:34.663Z,100388
2017-07-14T08:23:34.732Z,100384
2017-07-14T08:24:36.024Z,100377
2017-07-14T08:25:35.440Z,100385
2017-07-14T08:26:33.499Z,100391
2017-07-14T08:27:33.220Z,100387
2017-07-14T08:28:33.301Z,100388
2017-07-14T08:29:34.892Z,100384
2017-07-14T08:30:33.377Z,100387
2017-07-14T08:31:35.079Z,100393
2017-07-14T08:32:35.123Z,100393
2017-07-14T08:33:35.201Z,100387
2017-07-14T08:34:35.274Z,100391
2017-07-14T08:35:33.639Z,100390
2017-07-14T08:36:34.711Z,100389
2017-07-14T08:37:33.718Z,100388
2017-07-14T08:38:35.697Z,100387
2017-07-14T08:39:33.724Z,100387
2017-07-14T08:40:33.816Z,100381
2017-07-14T08:41:39.468Z,100382
2017-07-14T08:42:34.912Z,100392
2017-07-14T08:43:38.301Z,100384
2017-07-14T08:44:37.249Z,100385
2017-07-14T08:45:36.597Z,100372
2017-07-14T08:46:36.735Z,100380
2017-07-14T08:47:34.185Z,100383
2017-07-14T08:48:35.963Z,100381
2017-07-14T08:49:34.330Z,100382
2017-07-14T08:50:35.070Z,100373
2017-07-14T08:51:35.130Z,100388
2017-07-14T08:52:34.758Z,100386
2017-07-14T08:53:34.526Z,100374
2017-07-14T08:54:35.592Z,100381
2017-07-14T08:55:35.386Z,100383
2017-07-14T08:56:35.672Z,100378
2017-07-14T08:57:34.704Z,100371
2017-07-14T08:58:37.089Z,100377
2017-07-14T08:59:34.825Z,100379
2017-07-14T09:00:34.785Z,100377
2017-07-14T09:01:36.581Z,100373
2017-07-14T09:02:34.899Z,100372
2017-07-14T09:03:36.713Z,100374
2017-07-14T09:04:36.101Z,100371
2017-07-14T09:05:35.220Z,100371
2017-07-14T09:06:37.536Z,100376
2017-07-14T09:07:36.360Z,100381
2017-07-14T09:08:35.422Z,100371
2017-07-14T09:09:37.114Z,100376
2017-07-14T09:10:36.466Z,100372
2017-07-14T09:11:36.466Z,100376
2017-07-14T09:12:35.541Z,100365
2017-07-14T09:13:36.833Z,100372
2017-07-14T09:14:39.390Z,100372
2017-07-14T09:15:36.941Z,100372
2017-07-14T09:16:37.308Z,100361
2017-07-14T09:17:36.333Z,100363
2017-07-14T09:18:36.037Z,100370
2017-07-14T09:19:38.650Z,100370
2017-07-14T09:20:35.778Z,100372
2017-07-14T09:21:38.880Z,100373
2017-07-14T09:22:37.399Z,100374
2017-07-14T09:24:35.944Z,100374
2017-07-14T09:25:37.650Z,100372
2017-07-14T09:26:38.413Z,100377
2017-07-14T09:27:37.713Z,100369
2017-07-14T09:28:37.780Z,100376
2017-07-14T09:29:38.018Z,100379
2017-07-14T09:30:38.608Z,100377
2017-07-14T09:31:39.567Z,100374
2017-07-14T09:32:39.608Z,100379
2017-07-14T09:33:38.301Z,100376
2017-07-14T09:34:38.592Z,100372
2017-07-14T09:35:38.524Z,100377
2017-07-14T09:36:37.943Z,100367
2017-07-14T09:37:36.469Z,100374
2017-07-14T09:38:37.163Z,100361
2017-07-14T09:39:36.560Z,100371
2017-07-14T09:40:38.238Z,100370
2017-07-14T09:41:37.177Z,100367
2017-07-14T09:42:37.382Z,100368
2017-07-14T09:43:37.330Z,100362
2017-07-14T09:44:37.651Z,100364
2017-07-14T09:45:36.784Z,100365
2017-07-14T09:46:39.497Z,100368
2017-07-14T09:47:39.433Z,100366
2017-07-14T09:48:37.854Z,100366
2017-07-14T09:49:37.895Z,100363
2017-07-14T09:50:39.269Z,100360
2017-07-14T09:51:39.085Z,100366
2017-07-14T09:52:38.652Z,100364
2017-07-14T09:53:37.153Z,100367
2017-07-14T09:54:37.209Z,100370
2017-07-14T09:55:39.626Z,100367
2017-07-14T09:56:39.075Z,100366
2017-07-14T09:57:37.391Z,100366
2017-07-14T09:58:37.950Z,100372
2017-07-14T09:59:37.519Z,100368
2017-07-14T10:00:39.459Z,100361
2017-07-14T10:01:40.061Z,100373
2017-07-14T10:02:39.344Z,100376
2017-07-14T10:03:39.096Z,100369
2017-07-14T10:04:40.087Z,100372
2017-07-14T10:05:39.151Z,100362
2017-07-14T10:06:39.790Z,100367
2017-07-14T10:07:39.861Z,100370
2017-07-14T10:08:42.281Z,100361
2017-07-14T10:09:39.946Z,100368
2017-07-14T10:10:38.244Z,100372
2017-07-14T10:11:38.999Z,100373
2017-07-14T10:12:40.467Z,100372
2017-07-14T10:13:39.716Z,100372
2017-07-14T10:14:40.139Z,100374
2017-07-14T10:15:38.504Z,100370
2017-07-14T10:16:39.094Z,100372
2017-07-14T10:17:39.092Z,100363
2017-07-14T10:18:38.661Z,100362
2017-07-14T10:19:39.756Z,100362
2017-07-14T10:20:39.241Z,100370
2017-07-14T10:21:40.305Z,100369
2017-07-14T10:22:40.492Z,100367
2017-07-14T10:23:42.165Z,100365
2017-07-14T10:24:41.285Z,100364
2017-07-14T10:25:40.578Z,100362
2017-07-14T10:26:40.725Z,100366
2017-07-14T10:27:40.671Z,100365
2017-07-14T10:28:41.431Z,100356
2017-07-14T10:29:39.454Z,100366
2017-07-14T10:30:40.797Z,100364
2017-07-14T10:31:39.854Z,100362
2017-07-14T10:32:39.517Z,100353
2017-07-14T10:33:39.522Z,100359
2017-07-14T10:34:39.521Z,100367
2017-07-14T10:35:39.648Z,100360
2017-07-14T10:36:40.677Z,100364
2017-07-14T10:37:40.689Z,100367
2017-07-14T10:38:40.771Z,100366
2017-07-14T10:39:42.293Z,100358
2017-07-14T10:40:41.541Z,100371
2017-07-14T10:41:42.281Z,100363
2017-07-14T10:42:42.425Z,100357
2017-07-14T10:43:40.052Z,100362
2017-07-14T10:44:41.465Z,100355
2017-07-14T10:45:41.887Z,100362
2017-07-14T10:46:40.901Z,100352
2017-07-14T10:47:43.882Z,100365
2017-07-14T10:48:41.806Z,100370
2017-07-14T10:49:42.471Z,100367
2017-07-14T10:50:40.314Z,100367
2017-07-14T10:51:40.962Z,100364
2017-07-14T10:52:40.423Z,100365
2017-07-14T10:53:40.956Z,100353
2017-07-14T10:54:47.032Z,100362
2017-07-14T10:55:42.056Z,100353
2017-07-14T10:56:41.413Z,100360
2017-07-14T10:57:42.999Z,100359
2017-07-14T10:58:42.456Z,100356
2017-07-14T10:59:40.960Z,100357
2017-07-14T11:00:40.982Z,100363
2017-07-14T11:01:43.708Z,100359
2017-07-14T11:02:44.845Z,100364
2017-07-14T11:03:43.460Z,100360
2017-07-14T11:04:41.930Z,100365
2017-07-14T11:05:44.077Z,100361
2017-07-14T11:06:43.483Z,100357
2017-07-14T11:07:42.498Z,100358
2017-07-14T11:08:45.499Z,100352
2017-07-14T11:09:41.951Z,100359
2017-07-14T11:10:43.578Z,100359
2017-07-14T11:11:42.270Z,100359
2017-07-14T11:12:42.261Z,100359
2017-07-14T11:13:43.260Z,100359
2017-07-14T11:14:41.819Z,100352
2017-07-14T11:15:42.577Z,100356
2017-07-14T11:16:42.619Z,100340
2017-07-14T11:17:42.126Z,100355
2017-07-14T11:18:42.091Z,100359
2017-07-14T11:19:42.186Z,100354
2017-07-14T11:20:43.910Z,100354
2017-07-14T11:21:44.551Z,100345
2017-07-14T11:22:43.850Z,100352
2017-07-14T11:23:45.908Z,100352
2017-07-14T11:24:46.774Z,100342
2017-07-14T11:25:43.628Z,100350
2017-07-14T11:26:45.052Z,100350
2017-07-14T11:27:43.713Z,100351
2017-07-14T11:28:43.149Z,100347
2017-07-14T11:29:43.464Z,100337
2017-07-14T11:30:43.717Z,100347
2017-07-14T11:31:53.988Z,100346
2017-07-14T11:32:46.154Z,100347
2017-07-14T11:33:44.539Z,100351
2017-07-14T11:34:43.242Z,100340
2017-07-14T11:35:43.016Z,100348
2017-07-14T11:36:42.994Z,100353
2017-07-14T11:37:44.860Z,100350
2017-07-14T11:38:43.843Z,100345
2017-07-14T11:39:43.220Z,100342
2017-07-14T11:40:43.266Z,100341
2017-07-14T11:41:45.054Z,100343
2017-07-14T11:42:43.441Z,100341
2017-07-14T11:43:44.394Z,100341
2017-07-14T11:44:44.115Z,100346
2017-07-14T11:45:43.462Z,100351
2017-07-14T11:46:44.529Z,100349
2017-07-14T11:47:46.027Z,100349
2017-07-14T11:48:43.742Z,100345
2017-07-14T11:49:45.236Z,100350
2017-07-14T11:50:46.423Z,100343
2017-07-14T11:51:45.768Z,100337
2017-07-14T11:52:44.094Z,100352
2017-07-14T11:53:44.863Z,100337
2017-07-14T11:54:45.769Z,100344
2017-07-14T11:55:44.266Z,100341
2017-07-14T11:56:44.375Z,100330
2017-07-14T11:57:48.351Z,100342
2017-07-14T11:58:45.407Z,100348
2017-07-14T11:59:46.160Z,100343
2017-07-14T12:00:46.474Z,100343
2017-07-14T12:01:45.192Z,100341
2017-07-14T12:02:45.410Z,100338
2017-07-14T12:03:47.586Z,100347
2017-07-14T12:04:45.439Z,100345
2017-07-14T12:05:47.130Z,100342
2017-07-14T12:06:46.056Z,100344
2017-07-14T12:07:45.634Z,100343
2017-07-14T12:08:46.059Z,100344
2017-07-14T12:09:46.794Z,100344
2017-07-14T12:10:46.892Z,100345
2017-07-14T12:11:45.266Z,100351
2017-07-14T12:12:45.254Z,100350
2017-07-14T12:13:46.284Z,100336
2017-07-14T12:14:45.442Z,100346
2017-07-14T12:15:45.949Z,100344
2017-07-14T12:16:47.064Z,100339
2017-07-14T12:17:48.363Z,100344
2017-07-14T12:18:46.489Z,100344
2017-07-14T12:19:47.214Z,100338
2017-07-14T12:20:48.400Z,100342
2017-07-14T12:21:45.754Z,100348
2017-07-14T12:22:45.757Z,100339
2017-07-14T12:23:47.388Z,100344
2017-07-14T12:24:48.821Z,100348
2017-07-14T12:25:46.034Z,100345
2017-07-14T12:26:47.029Z,100343
2017-07-14T12:27:46.661Z,100337
2017-07-14T12:28:47.181Z,100350
2017-07-14T12:29:49.863Z,100347
2017-07-14T12:30:48.822Z,100342
2017-07-14T12:31:49.067Z,100347
2017-07-14T12:32:48.704Z,100348
2017-07-14T12:33:51.734Z,100339
2017-07-14T12:34:48.288Z,100348